sensor_id;sensor_type;location;lat;lon;timestamp;pressure;altitude;pressure_sealevel;temperature;humidity
9187;BME280;7273;48.902;9.410;2023-06-24T00:02:16;98881.00;;;18.07;56.98
9187;BME280;7273;48.902;9.410;2023-06-24T00:04:42;98880.56;;;17.86;57.39
9187;BME280;7273;48.902;9.410;2023-06-24T00:07:08;98878.13;;;17.85;57.41
9187;BME280;7273;48.902;9.410;2023-06-24T00:09:34;98881.47;;;17.82;57.33
9187;BME280;7273;48.902;9.410;2023-06-24T00:12:00;98881.28;;;17.78;57.49
9187;BME280;7273;48.902;9.410;2023-06-24T00:14:26;98885.94;;;17.78;57.56
9187;BME280;7273;48.902;9.410;2023-06-24T00:16:53;98886.00;;;17.73;57.67
9187;BME280;7273;48.902;9.410;2023-06-24T00:19:20;98883.00;;;17.74;57.50
9187;BME280;7273;48.902;9.410;2023-06-24T00:21:48;98883.50;;;17.76;57.57
9187;BME280;7273;48.902;9.410;2023-06-24T00:24:13;98884.81;;;17.65;57.77
9187;BME280;7273;48.902;9.410;2023-06-24T00:26:39;98880.94;;;17.66;57.80
9187;BME280;7273;48.902;9.410;2023-06-24T00:29:05;98893.84;;;17.66;57.85
9187;BME280;7273;48.902;9.410;2023-06-24T00:31:30;98887.31;;;17.62;57.96
9187;BME280;7273;48.902;9.410;2023-06-24T00:33:56;98895.09;;;17.55;58.03
9187;BME280;7273;48.902;9.410;2023-06-24T00:36:22;98898.66;;;17.55;58.08
9187;BME280;7273;48.902;9.410;2023-06-24T00:38:48;98894.63;;;17.53;58.14
9187;BME280;7273;48.902;9.410;2023-06-24T00:41:16;98891.88;;;17.53;58.20
9187;BME280;7273;48.902;9.410;2023-06-24T00:43:45;98894.19;;;17.46;58.23
9187;BME280;7273;48.902;9.410;2023-06-24T00:46:11;98887.09;;;17.44;58.31
9187;BME280;7273;48.902;9.410;2023-06-24T00:48:39;98881.59;;;17.44;58.29
9187;BME280;7273;48.902;9.410;2023-06-24T00:51:05;98880.28;;;17.42;58.37
9187;BME280;7273;48.902;9.410;2023-06-24T00:53:31;98885.03;;;17.36;58.42
9187;BME280;7273;48.902;9.410;2023-06-24T00:55:58;98875.19;;;17.35;58.57
9187;BME280;7273;48.902;9.410;2023-06-24T00:58:31;98887.25;;;17.34;58.78
9187;BME280;7273;48.902;9.410;2023-06-24T01:00:58;98882.09;;;17.33;58.60
9187;BME280;7273;48.902;9.410;2023-06-24T01:03:25;98887.63;;;17.28;58.84
9187;BME280;7273;48.902;9.410;2023-06-24T01:05:51;98878.09;;;17.25;58.70
9187;BME280;7273;48.902;9.410;2023-06-24T01:08:17;98879.09;;;17.16;58.89
9187;BME280;7273;48.902;9.410;2023-06-24T01:10:44;98874.66;;;17.20;58.94
9187;BME280;7273;48.902;9.410;2023-06-24T01:13:10;98866.31;;;17.11;59.06
9187;BME280;7273;48.902;9.410;2023-06-24T01:15:36;98868.84;;;17.08;59.14
9187;BME280;7273;48.902;9.410;2023-06-24T01:20:55;98867.59;;;17.00;59.36
9187;BME280;7273;48.902;9.410;2023-06-24T01:31:36;98870.88;;;16.84;60.32
9187;BME280;7273;48.902;9.410;2023-06-24T01:37:44;98871.84;;;16.74;60.92
9187;BME280;7273;48.902;9.410;2023-06-24T01:40:22;98874.72;;;16.64;60.17
9187;BME280;7273;48.902;9.410;2023-06-24T01:42:50;98875.03;;;16.63;59.92
9187;BME280;7273;48.902;9.410;2023-06-24T01:45:36;98868.16;;;16.65;60.94
9187;BME280;7273;48.902;9.410;2023-06-24T01:48:09;98864.25;;;16.53;60.58
9187;BME280;7273;48.902;9.410;2023-06-24T01:50:37;98861.22;;;16.54;60.14
9187;BME280;7273;48.902;9.410;2023-06-24T01:53:06;98864.31;;;16.48;60.21
9187;BME280;7273;48.902;9.410;2023-06-24T01:55:33;98859.97;;;16.42;60.37
9187;BME280;7273;48.902;9.410;2023-06-24T01:58:02;98861.69;;;16.38;60.54
9187;BME280;7273;48.902;9.410;2023-06-24T02:00:29;98860.72;;;16.29;60.49
9187;BME280;7273;48.902;9.410;2023-06-24T02:02:55;98858.28;;;16.27;60.79
9187;BME280;7273;48.902;9.410;2023-06-24T02:05:21;98865.69;;;16.27;60.52
9187;BME280;7273;48.902;9.410;2023-06-24T02:07:48;98869.72;;;16.29;60.38
9187;BME280;7273;48.902;9.410;2023-06-24T02:10:15;98862.72;;;16.23;60.62
9187;BME280;7273;48.902;9.410;2023-06-24T02:12:44;98865.75;;;16.22;60.67
9187;BME280;7273;48.902;9.410;2023-06-24T02:15:10;98861.16;;;16.17;60.65
9187;BME280;7273;48.902;9.410;2023-06-24T02:17:36;98858.22;;;16.13;60.83
9187;BME280;7273;48.902;9.410;2023-06-24T02:20:06;98858.50;;;16.12;60.88
9187;BME280;7273;48.902;9.410;2023-06-24T02:22:32;98844.16;;;16.01;61.12
9187;BME280;7273;48.902;9.410;2023-06-24T02:24:58;98853.22;;;15.97;61.22
9187;BME280;7273;48.902;9.410;2023-06-24T02:27:24;98852.41;;;15.96;61.08
9187;BME280;7273;48.902;9.410;2023-06-24T02:29:51;98854.66;;;15.89;61.20
9187;BME280;7273;48.902;9.410;2023-06-24T02:32:17;98851.94;;;15.89;61.28
9187;BME280;7273;48.902;9.410;2023-06-24T02:34:43;98850.97;;;15.80;61.56
9187;BME280;7273;48.902;9.410;2023-06-24T02:37:08;98845.81;;;15.79;61.62
9187;BME280;7273;48.902;9.410;2023-06-24T02:39:34;98849.13;;;15.76;61.59
9187;BME280;7273;48.902;9.410;2023-06-24T02:42:00;98857.59;;;15.74;61.77
9187;BME280;7273;48.902;9.410;2023-06-24T02:44:25;98853.81;;;15.70;61.93
9187;BME280;7273;48.902;9.410;2023-06-24T02:46:51;98842.38;;;15.68;61.80
9187;BME280;7273;48.902;9.410;2023-06-24T02:49:19;98850.91;;;15.62;61.97
9187;BME280;7273;48.902;9.410;2023-06-24T02:51:45;98844.44;;;15.58;62.08
9187;BME280;7273;48.902;9.410;2023-06-24T02:54:11;98843.88;;;15.56;62.38
9187;BME280;7273;48.902;9.410;2023-06-24T02:56:38;98850.81;;;15.48;62.33
9187;BME280;7273;48.902;9.410;2023-06-24T02:59:07;98857.63;;;15.46;62.52
9187;BME280;7273;48.902;9.410;2023-06-24T03:01:32;98853.28;;;15.45;62.72
9187;BME280;7273;48.902;9.410;2023-06-24T03:03:59;98854.41;;;15.39;62.43
9187;BME280;7273;48.902;9.410;2023-06-24T03:06:25;98853.88;;;15.42;62.33
9187;BME280;7273;48.902;9.410;2023-06-24T03:08:52;98847.00;;;15.44;62.58
9187;BME280;7273;48.902;9.410;2023-06-24T03:11:18;98855.78;;;15.41;62.39
9187;BME280;7273;48.902;9.410;2023-06-24T03:13:43;98849.75;;;15.44;62.51
9187;BME280;7273;48.902;9.410;2023-06-24T03:16:09;98855.50;;;15.43;62.37
9187;BME280;7273;48.902;9.410;2023-06-24T03:18:40;98859.03;;;15.43;62.42
9187;BME280;7273;48.902;9.410;2023-06-24T03:21:05;98860.13;;;15.42;62.58
9187;BME280;7273;48.902;9.410;2023-06-24T03:23:31;98857.97;;;15.39;62.44
9187;BME280;7273;48.902;9.410;2023-06-24T03:25:57;98862.31;;;15.40;62.33
9187;BME280;7273;48.902;9.410;2023-06-24T03:28:22;98871.59;;;15.39;62.55
9187;BME280;7273;48.902;9.410;2023-06-24T03:30:47;98876.47;;;15.42;62.74
9187;BME280;7273;48.902;9.410;2023-06-24T03:33:13;98873.44;;;15.44;62.43
9187;BME280;7273;48.902;9.410;2023-06-24T03:35:42;98872.38;;;15.45;62.36
9187;BME280;7273;48.902;9.410;2023-06-24T03:38:07;98876.75;;;15.41;62.70
9187;BME280;7273;48.902;9.410;2023-06-24T03:40:32;98885.22;;;15.39;62.77
9187;BME280;7273;48.902;9.410;2023-06-24T03:42:58;98889.56;;;15.40;62.60
9187;BME280;7273;48.902;9.410;2023-06-24T03:45:23;98896.09;;;15.44;62.68
9187;BME280;7273;48.902;9.410;2023-06-24T03:47:48;98898.00;;;15.44;62.46
9187;BME280;7273;48.902;9.410;2023-06-24T03:50:14;98907.22;;;15.48;62.66
9187;BME280;7273;48.902;9.410;2023-06-24T03:52:39;98902.66;;;15.43;62.70
9187;BME280;7273;48.902;9.410;2023-06-24T03:55:05;98899.94;;;15.43;62.59
9187;BME280;7273;48.902;9.410;2023-06-24T03:57:30;98898.56;;;15.41;62.91
9187;BME280;7273;48.902;9.410;2023-06-24T03:59:56;98914.63;;;15.42;62.84
9187;BME280;7273;48.902;9.410;2023-06-24T04:02:21;98909.47;;;15.41;62.93
9187;BME280;7273;48.902;9.410;2023-06-24T04:04:47;98915.47;;;15.43;62.75
9187;BME280;7273;48.902;9.410;2023-06-24T04:07:16;98914.88;;;15.46;62.70
9187;BME280;7273;48.902;9.410;2023-06-24T04:09:53;98918.16;;;15.48;62.89
9187;BME280;7273;48.902;9.410;2023-06-24T04:12:19;98916.78;;;15.45;62.83
9187;BME280;7273;48.902;9.410;2023-06-24T04:14:44;98921.63;;;15.53;62.80
9187;BME280;7273;48.902;9.410;2023-06-24T04:17:10;98921.56;;;15.58;62.71
9187;BME280;7273;48.902;9.410;2023-06-24T04:19:35;98931.78;;;15.48;63.03
9187;BME280;7273;48.902;9.410;2023-06-24T04:22:01;98926.66;;;15.36;63.28
9187;BME280;7273;48.902;9.410;2023-06-24T04:24:26;98927.53;;;15.32;63.25
9187;BME280;7273;48.902;9.410;2023-06-24T04:26:51;98925.03;;;15.35;63.03
9187;BME280;7273;48.902;9.410;2023-06-24T04:29:17;98930.47;;;15.40;63.22
9187;BME280;7273;48.902;9.410;2023-06-24T04:31:42;98937.75;;;15.50;62.71
9187;BME280;7273;48.902;9.410;2023-06-24T04:34:07;98932.25;;;15.55;62.77
9187;BME280;7273;48.902;9.410;2023-06-24T04:36:33;98930.84;;;15.57;62.88
9187;BME280;7273;48.902;9.410;2023-06-24T04:38:58;98934.66;;;15.61;62.43
9187;BME280;7273;48.902;9.410;2023-06-24T04:41:23;98932.97;;;15.65;62.65
9187;BME280;7273;48.902;9.410;2023-06-24T04:43:50;98939.13;;;15.76;62.52
9187;BME280;7273;48.902;9.410;2023-06-24T04:46:16;98943.44;;;15.82;62.63
9187;BME280;7273;48.902;9.410;2023-06-24T04:48:41;98946.41;;;15.85;62.96
9187;BME280;7273;48.902;9.410;2023-06-24T04:51:06;98944.19;;;15.87;62.57
9187;BME280;7273;48.902;9.410;2023-06-24T04:53:32;98944.59;;;15.99;62.61
9187;BME280;7273;48.902;9.410;2023-06-24T04:55:57;98939.09;;;16.04;62.52
9187;BME280;7273;48.902;9.410;2023-06-24T04:58:23;98939.28;;;16.13;62.30
9187;BME280;7273;48.902;9.410;2023-06-24T05:00:48;98939.50;;;16.17;62.33
9187;BME280;7273;48.902;9.410;2023-06-24T05:03:13;98941.88;;;16.23;62.54
9187;BME280;7273;48.902;9.410;2023-06-24T05:05:39;98940.69;;;16.29;62.39
9187;BME280;7273;48.902;9.410;2023-06-24T05:08:04;98949.13;;;16.33;62.59
9187;BME280;7273;48.902;9.410;2023-06-24T05:10:30;98949.38;;;16.36;62.60
9187;BME280;7273;48.902;9.410;2023-06-24T05:12:55;98954.47;;;16.43;62.72
9187;BME280;7273;48.902;9.410;2023-06-24T05:15:21;98950.00;;;16.52;62.33
9187;BME280;7273;48.902;9.410;2023-06-24T05:17:46;98955.09;;;16.58;62.69
9187;BME280;7273;48.902;9.410;2023-06-24T05:20:11;98951.22;;;16.64;62.40
9187;BME280;7273;48.902;9.410;2023-06-24T05:22:37;98950.03;;;16.70;62.60
9187;BME280;7273;48.902;9.410;2023-06-24T05:25:02;98952.63;;;16.80;62.59
9187;BME280;7273;48.902;9.410;2023-06-24T05:27:28;98953.63;;;16.84;62.43
9187;BME280;7273;48.902;9.410;2023-06-24T05:29:53;98951.88;;;16.93;62.35
9187;BME280;7273;48.902;9.410;2023-06-24T05:32:18;98952.63;;;16.99;62.31
9187;BME280;7273;48.902;9.410;2023-06-24T05:34:46;98951.88;;;17.12;62.16
9187;BME280;7273;48.902;9.410;2023-06-24T05:37:11;98955.84;;;17.19;62.28
9187;BME280;7273;48.902;9.410;2023-06-24T05:39:36;98944.03;;;17.24;62.46
9187;BME280;7273;48.902;9.410;2023-06-24T05:42:02;98945.69;;;17.38;62.42
9187;BME280;7273;48.902;9.410;2023-06-24T05:44:27;98950.50;;;17.47;62.41
9187;BME280;7273;48.902;9.410;2023-06-24T05:46:53;98953.69;;;17.54;62.46
9187;BME280;7273;48.902;9.410;2023-06-24T05:49:18;98953.81;;;17.62;62.46
9187;BME280;7273;48.902;9.410;2023-06-24T05:51:44;98957.56;;;17.66;62.37
9187;BME280;7273;48.902;9.410;2023-06-24T05:54:09;98952.72;;;17.77;62.36
9187;BME280;7273;48.902;9.410;2023-06-24T05:56:34;98955.28;;;17.87;62.38
9187;BME280;7273;48.902;9.410;2023-06-24T05:59:01;98960.66;;;17.92;62.25
9187;BME280;7273;48.902;9.410;2023-06-24T06:01:27;98958.84;;;18.01;62.10
9187;BME280;7273;48.902;9.410;2023-06-24T06:03:52;98963.59;;;18.09;62.30
9187;BME280;7273;48.902;9.410;2023-06-24T06:06:17;98963.94;;;18.34;61.83
9187;BME280;7273;48.902;9.410;2023-06-24T06:08:43;98954.94;;;18.47;61.71
9187;BME280;7273;48.902;9.410;2023-06-24T06:11:08;98949.03;;;18.54;61.78
9187;BME280;7273;48.902;9.410;2023-06-24T06:13:33;98945.38;;;18.58;61.77
9187;BME280;7273;48.902;9.410;2023-06-24T06:15:59;98946.19;;;18.59;62.07
9187;BME280;7273;48.902;9.410;2023-06-24T06:18:24;98947.28;;;18.58;62.25
9187;BME280;7273;48.902;9.410;2023-06-24T06:20:50;98944.84;;;18.70;62.01
9187;BME280;7273;48.902;9.410;2023-06-24T06:23:16;98946.56;;;18.80;61.89
9187;BME280;7273;48.902;9.410;2023-06-24T06:25:42;98943.06;;;18.88;61.44
9187;BME280;7273;48.902;9.410;2023-06-24T06:28:07;98939.47;;;19.01;61.12
9187;BME280;7273;48.902;9.410;2023-06-24T06:30:33;98939.94;;;19.16;60.91
9187;BME280;7273;48.902;9.410;2023-06-24T06:32:58;98948.84;;;19.35;60.78
9187;BME280;7273;48.902;9.410;2023-06-24T06:35:23;98944.72;;;19.46;60.51
9187;BME280;7273;48.902;9.410;2023-06-24T06:37:49;98946.84;;;19.49;60.44
9187;BME280;7273;48.902;9.410;2023-06-24T06:40:21;98945.41;;;19.52;60.51
9187;BME280;7273;48.902;9.410;2023-06-24T06:42:47;98952.13;;;19.68;60.29
9187;BME280;7273;48.902;9.410;2023-06-24T06:45:12;98948.81;;;19.79;59.86
9187;BME280;7273;48.902;9.410;2023-06-24T06:47:38;98944.31;;;19.83;60.07
9187;BME280;7273;48.902;9.410;2023-06-24T06:50:03;98948.63;;;20.07;59.58
9187;BME280;7273;48.902;9.410;2023-06-24T06:52:29;98946.81;;;20.33;59.14
9187;BME280;7273;48.902;9.410;2023-06-24T06:54:55;98950.44;;;20.50;58.91
9187;BME280;7273;48.902;9.410;2023-06-24T06:57:20;98954.31;;;20.58;58.70
9187;BME280;7273;48.902;9.410;2023-06-24T06:59:46;98949.34;;;20.68;58.73
9187;BME280;7273;48.902;9.410;2023-06-24T07:02:11;98946.75;;;20.63;58.89
9187;BME280;7273;48.902;9.410;2023-06-24T07:04:36;98947.09;;;20.70;58.92
9187;BME280;7273;48.902;9.410;2023-06-24T07:07:02;98942.88;;;20.73;59.03
9187;BME280;7273;48.902;9.410;2023-06-24T07:09:27;98945.50;;;20.86;58.98
9187;BME280;7273;48.902;9.410;2023-06-24T07:11:53;98944.06;;;20.97;58.65
9187;BME280;7273;48.902;9.410;2023-06-24T07:14:18;98949.25;;;20.99;58.36
9187;BME280;7273;48.902;9.410;2023-06-24T07:16:44;98943.59;;;21.04;58.53
9187;BME280;7273;48.902;9.410;2023-06-24T07:19:09;98947.63;;;21.15;58.42
9187;BME280;7273;48.902;9.410;2023-06-24T07:21:34;98951.84;;;21.04;58.66
9187;BME280;7273;48.902;9.410;2023-06-24T07:24:00;98944.41;;;21.13;58.55
9187;BME280;7273;48.902;9.410;2023-06-24T07:26:25;98948.94;;;21.09;58.61
9187;BME280;7273;48.902;9.410;2023-06-24T07:28:55;98940.38;;;21.27;58.22
9187;BME280;7273;48.902;9.410;2023-06-24T07:31:21;98939.53;;;21.44;58.40
9187;BME280;7273;48.902;9.410;2023-06-24T07:33:46;98942.78;;;21.38;58.18
9187;BME280;7273;48.902;9.410;2023-06-24T07:36:12;98945.19;;;21.48;57.90
9187;BME280;7273;48.902;9.410;2023-06-24T07:38:39;98935.97;;;21.52;57.68
9187;BME280;7273;48.902;9.410;2023-06-24T07:41:04;98929.91;;;21.67;57.50
9187;BME280;7273;48.902;9.410;2023-06-24T07:43:29;98927.66;;;21.86;57.45
9187;BME280;7273;48.902;9.410;2023-06-24T07:45:55;98932.75;;;22.05;57.26
9187;BME280;7273;48.902;9.410;2023-06-24T07:48:20;98936.44;;;22.17;57.25
9187;BME280;7273;48.902;9.410;2023-06-24T07:50:46;98922.50;;;22.22;56.85
9187;BME280;7273;48.902;9.410;2023-06-24T07:53:11;98924.56;;;22.25;56.93
9187;BME280;7273;48.902;9.410;2023-06-24T07:55:37;98925.25;;;22.22;56.86
9187;BME280;7273;48.902;9.410;2023-06-24T07:58:02;98920.00;;;22.29;56.61
9187;BME280;7273;48.902;9.410;2023-06-24T08:00:28;98928.09;;;22.34;57.00
9187;BME280;7273;48.902;9.410;2023-06-24T08:02:54;98927.50;;;22.20;56.53
9187;BME280;7273;48.902;9.410;2023-06-24T08:05:21;98927.19;;;22.51;56.19
9187;BME280;7273;48.902;9.410;2023-06-24T08:07:46;98927.50;;;22.58;56.10
9187;BME280;7273;48.902;9.410;2023-06-24T08:10:12;98928.66;;;22.57;55.87
9187;BME280;7273;48.902;9.410;2023-06-24T08:12:37;98927.47;;;22.67;55.68
9187;BME280;7273;48.902;9.410;2023-06-24T08:15:03;98928.00;;;22.60;55.54
9187;BME280;7273;48.902;9.410;2023-06-24T08:17:28;98923.16;;;22.78;55.71
9187;BME280;7273;48.902;9.410;2023-06-24T08:19:54;98918.06;;;22.88;55.57
9187;BME280;7273;48.902;9.410;2023-06-24T08:22:19;98925.47;;;23.17;55.26
9187;BME280;7273;48.902;9.410;2023-06-24T08:24:44;98926.34;;;23.29;54.97
9187;BME280;7273;48.902;9.410;2023-06-24T08:27:10;98924.19;;;23.35;54.97
9187;BME280;7273;48.902;9.410;2023-06-24T08:29:35;98926.81;;;23.52;55.15
9187;BME280;7273;48.902;9.410;2023-06-24T08:32:03;98926.81;;;23.64;55.07
9187;BME280;7273;48.902;9.410;2023-06-24T08:34:28;98923.50;;;23.58;55.05
9187;BME280;7273;48.902;9.410;2023-06-24T08:36:53;98921.09;;;23.69;54.93
9187;BME280;7273;48.902;9.410;2023-06-24T08:39:19;98915.22;;;23.70;54.81
9187;BME280;7273;48.902;9.410;2023-06-24T08:41:44;98912.84;;;23.81;54.70
9187;BME280;7273;48.902;9.410;2023-06-24T08:44:09;98909.38;;;23.84;54.46
9187;BME280;7273;48.902;9.410;2023-06-24T08:46:35;98900.66;;;23.94;54.17
9187;BME280;7273;48.902;9.410;2023-06-24T08:51:51;98911.75;;;24.18;54.10
9187;BME280;7273;48.902;9.410;2023-06-24T08:54:19;98914.09;;;24.28;54.04
9187;BME280;7273;48.902;9.410;2023-06-24T08:56:45;98912.09;;;24.41;53.86
9187;BME280;7273;48.902;9.410;2023-06-24T08:59:10;98901.41;;;24.39;53.97
9187;BME280;7273;48.902;9.410;2023-06-24T09:01:36;98907.03;;;24.31;53.88
9187;BME280;7273;48.902;9.410;2023-06-24T09:04:01;98912.47;;;24.27;54.08
9187;BME280;7273;48.902;9.410;2023-06-24T09:06:27;98904.41;;;24.46;53.96
9187;BME280;7273;48.902;9.410;2023-06-24T09:08:54;98911.78;;;24.30;53.79
9187;BME280;7273;48.902;9.410;2023-06-24T09:11:27;98907.38;;;24.29;53.74
9187;BME280;7273;48.902;9.410;2023-06-24T09:14:00;98904.53;;;24.26;53.43
9187;BME280;7273;48.902;9.410;2023-06-24T09:16:25;98907.72;;;24.28;53.77
9187;BME280;7273;48.902;9.410;2023-06-24T09:18:52;98905.09;;;24.43;53.38
9187;BME280;7273;48.902;9.410;2023-06-24T09:21:25;98903.22;;;24.59;52.96
9187;BME280;7273;48.902;9.410;2023-06-24T09:23:55;98901.16;;;24.80;53.22
9187;BME280;7273;48.902;9.410;2023-06-24T09:26:25;98898.16;;;24.85;52.55
9187;BME280;7273;48.902;9.410;2023-06-24T09:28:51;98892.78;;;25.04;52.70
9187;BME280;7273;48.902;9.410;2023-06-24T09:31:17;98883.84;;;25.23;52.51
9187;BME280;7273;48.902;9.410;2023-06-24T09:33:43;98887.84;;;25.38;52.06
9187;BME280;7273;48.902;9.410;2023-06-24T09:36:13;98877.94;;;25.52;51.47
9187;BME280;7273;48.902;9.410;2023-06-24T09:38:40;98876.19;;;25.60;51.69
9187;BME280;7273;48.902;9.410;2023-06-24T09:41:06;98874.50;;;25.71;51.11
9187;BME280;7273;48.902;9.410;2023-06-24T09:43:36;98868.97;;;25.86;50.63
9187;BME280;7273;48.902;9.410;2023-06-24T09:46:03;98879.06;;;25.94;51.18
9187;BME280;7273;48.902;9.410;2023-06-24T09:48:29;98870.16;;;26.01;50.91
9187;BME280;7273;48.902;9.410;2023-06-24T09:50:59;98867.66;;;26.11;50.45
9187;BME280;7273;48.902;9.410;2023-06-24T09:53:27;98871.25;;;26.12;50.46
9187;BME280;7273;48.902;9.410;2023-06-24T09:55:55;98864.16;;;26.14;50.63
9187;BME280;7273;48.902;9.410;2023-06-24T09:58:23;98860.84;;;25.93;50.74
9187;BME280;7273;48.902;9.410;2023-06-24T10:00:50;98860.31;;;26.19;50.23
9187;BME280;7273;48.902;9.410;2023-06-24T10:03:17;98856.97;;;26.29;50.15
9187;BME280;7273;48.902;9.410;2023-06-24T10:05:43;98855.00;;;26.45;50.07
9187;BME280;7273;48.902;9.410;2023-06-24T10:08:09;98845.22;;;26.51;50.07
9187;BME280;7273;48.902;9.410;2023-06-24T10:10:35;98849.16;;;26.66;49.89
9187;BME280;7273;48.902;9.410;2023-06-24T10:13:01;98843.94;;;26.64;49.91
9187;BME280;7273;48.902;9.410;2023-06-24T10:15:26;98841.97;;;26.65;50.18
9187;BME280;7273;48.902;9.410;2023-06-24T10:17:52;98844.06;;;26.68;49.90
9187;BME280;7273;48.902;9.410;2023-06-24T10:20:24;98841.22;;;26.83;48.85
9187;BME280;7273;48.902;9.410;2023-06-24T10:22:51;98834.72;;;26.95;49.08
9187;BME280;7273;48.902;9.410;2023-06-24T10:25:16;98834.94;;;27.05;48.77
9187;BME280;7273;48.902;9.410;2023-06-24T10:27:44;98833.03;;;26.90;49.12
9187;BME280;7273;48.902;9.410;2023-06-24T10:30:17;98833.81;;;26.72;47.88
9187;BME280;7273;48.902;9.410;2023-06-24T10:32:43;98825.66;;;26.79;44.02
9187;BME280;7273;48.902;9.410;2023-06-24T10:35:26;98829.41;;;26.52;47.04
9187;BME280;7273;48.902;9.410;2023-06-24T10:37:59;98827.00;;;26.34;49.18
9187;BME280;7273;48.902;9.410;2023-06-24T10:40:38;98821.19;;;26.24;47.96
9187;BME280;7273;48.902;9.410;2023-06-24T10:43:27;98814.78;;;26.20;47.29
9187;BME280;7273;48.902;9.410;2023-06-24T10:45:54;98814.44;;;26.40;48.71
9187;BME280;7273;48.902;9.410;2023-06-24T10:48:21;98819.03;;;26.33;49.03
9187;BME280;7273;48.902;9.410;2023-06-24T10:50:47;98806.25;;;26.28;49.17
9187;BME280;7273;48.902;9.410;2023-06-24T10:53:13;98809.44;;;26.46;48.71
9187;BME280;7273;48.902;9.410;2023-06-24T10:55:39;98800.75;;;26.48;48.82
9187;BME280;7273;48.902;9.410;2023-06-24T10:58:12;98794.88;;;26.68;47.72
9187;BME280;7273;48.902;9.410;2023-06-24T11:00:39;98789.72;;;26.86;48.04
9187;BME280;7273;48.902;9.410;2023-06-24T11:03:12;98788.47;;;27.02;47.17
9187;BME280;7273;48.902;9.410;2023-06-24T11:05:42;98776.75;;;27.31;47.10
9187;BME280;7273;48.902;9.410;2023-06-24T11:08:08;98775.69;;;27.39;47.39
9187;BME280;7273;48.902;9.410;2023-06-24T11:10:45;98780.81;;;27.60;46.10
9187;BME280;7273;48.902;9.410;2023-06-24T11:13:11;98780.81;;;27.60;47.09
9187;BME280;7273;48.902;9.410;2023-06-24T11:15:38;98770.63;;;27.45;47.09
9187;BME280;7273;48.902;9.410;2023-06-24T11:18:04;98773.53;;;27.29;47.08
9187;BME280;7273;48.902;9.410;2023-06-24T11:20:29;98774.81;;;27.35;46.77
9187;BME280;7273;48.902;9.410;2023-06-24T11:22:55;98765.63;;;27.12;46.98
9187;BME280;7273;48.902;9.410;2023-06-24T11:25:21;98768.53;;;27.19;46.82
9187;BME280;7273;48.902;9.410;2023-06-24T11:27:47;98770.88;;;27.17;46.59
9187;BME280;7273;48.902;9.410;2023-06-24T11:30:16;98761.50;;;27.25;41.71
9187;BME280;7273;48.902;9.410;2023-06-24T11:32:43;98766.81;;;27.53;46.23
9187;BME280;7273;48.902;9.410;2023-06-24T11:35:10;98766.38;;;27.73;45.95
9187;BME280;7273;48.902;9.410;2023-06-24T11:37:35;98756.47;;;27.99;45.80
9187;BME280;7273;48.902;9.410;2023-06-24T11:40:06;98761.31;;;27.79;45.27
9187;BME280;7273;48.902;9.410;2023-06-24T11:42:32;98759.63;;;27.29;46.74
9187;BME280;7273;48.902;9.410;2023-06-24T11:45:05;98754.22;;;27.59;45.26
9187;BME280;7273;48.902;9.410;2023-06-24T11:47:34;98751.81;;;27.57;45.26
9187;BME280;7273;48.902;9.410;2023-06-24T11:50:00;98752.34;;;27.66;45.53
9187;BME280;7273;48.902;9.410;2023-06-24T11:55:01;98747.16;;;27.65;45.12
9187;BME280;7273;48.902;9.410;2023-06-24T11:57:52;98739.19;;;27.63;43.25
9187;BME280;7273;48.902;9.410;2023-06-24T12:00:22;98735.84;;;27.77;44.86
9187;BME280;7273;48.902;9.410;2023-06-24T12:03:00;98729.19;;;28.08;43.76
9187;BME280;7273;48.902;9.410;2023-06-24T12:05:30;98732.44;;;28.39;44.57
9187;BME280;7273;48.902;9.410;2023-06-24T12:07:59;98721.69;;;28.67;44.24
9187;BME280;7273;48.902;9.410;2023-06-24T12:10:26;98724.75;;;28.92;44.25
9187;BME280;7273;48.902;9.410;2023-06-24T12:12:52;98716.19;;;29.08;44.12
9187;BME280;7273;48.902;9.410;2023-06-24T12:15:19;98715.53;;;29.21;43.77
9187;BME280;7273;48.902;9.410;2023-06-24T12:17:45;98712.72;;;29.18;44.12
9187;BME280;7273;48.902;9.410;2023-06-24T12:20:10;98703.09;;;29.12;44.13
9187;BME280;7273;48.902;9.410;2023-06-24T12:22:36;98702.88;;;28.94;44.24
9187;BME280;7273;48.902;9.410;2023-06-24T12:25:02;98704.31;;;28.81;44.20
9187;BME280;7273;48.902;9.410;2023-06-24T12:27:27;98704.31;;;28.48;44.23
9187;BME280;7273;48.902;9.410;2023-06-24T12:29:53;98702.63;;;28.40;44.14
9187;BME280;7273;48.902;9.410;2023-06-24T12:32:18;98697.63;;;28.52;43.84
9187;BME280;7273;48.902;9.410;2023-06-24T12:34:44;98693.91;;;28.74;43.56
9187;BME280;7273;48.902;9.410;2023-06-24T12:37:09;98682.97;;;28.92;43.59
9187;BME280;7273;48.902;9.410;2023-06-24T12:39:34;98689.13;;;28.75;43.88
9187;BME280;7273;48.902;9.410;2023-06-24T12:42:00;98686.34;;;29.08;43.31
9187;BME280;7273;48.902;9.410;2023-06-24T12:44:25;98676.72;;;29.06;43.40
9187;BME280;7273;48.902;9.410;2023-06-24T12:46:50;98682.28;;;29.06;43.39
9187;BME280;7273;48.902;9.410;2023-06-24T12:49:16;98681.63;;;28.79;43.39
9187;BME280;7273;48.902;9.410;2023-06-24T12:51:41;98683.09;;;28.66;43.29
9187;BME280;7273;48.902;9.410;2023-06-24T12:54:07;98691.88;;;28.12;43.85
9187;BME280;7273;48.902;9.410;2023-06-24T12:56:33;98681.19;;;27.88;43.92
9187;BME280;7273;48.902;9.410;2023-06-24T12:58:58;98678.16;;;27.97;43.28
9187;BME280;7273;48.902;9.410;2023-06-24T13:01:23;98673.50;;;28.04;43.04
9187;BME280;7273;48.902;9.410;2023-06-24T13:03:49;98671.50;;;28.05;43.26
9187;BME280;7273;48.902;9.410;2023-06-24T13:06:14;98668.41;;;28.10;42.87
9187;BME280;7273;48.902;9.410;2023-06-24T13:08:40;98669.41;;;28.24;42.63
9187;BME280;7273;48.902;9.410;2023-06-24T13:11:05;98664.88;;;28.13;42.99
9187;BME280;7273;48.902;9.410;2023-06-24T13:13:30;98656.72;;;28.27;42.58
9187;BME280;7273;48.902;9.410;2023-06-24T13:15:56;98659.25;;;28.39;42.08
9187;BME280;7273;48.902;9.410;2023-06-24T13:18:21;98649.88;;;28.50;42.06
9187;BME280;7273;48.902;9.410;2023-06-24T13:20:47;98646.41;;;28.60;41.95
9187;BME280;7273;48.902;9.410;2023-06-24T13:23:12;98652.75;;;28.57;41.97
9187;BME280;7273;48.902;9.410;2023-06-24T13:25:37;98650.50;;;28.70;41.78
9187;BME280;7273;48.902;9.410;2023-06-24T13:28:03;98649.06;;;28.50;42.09
9187;BME280;7273;48.902;9.410;2023-06-24T13:30:28;98642.09;;;28.66;41.67
9187;BME280;7273;48.902;9.410;2023-06-24T13:32:55;98641.44;;;28.80;41.54
9187;BME280;7273;48.902;9.410;2023-06-24T13:35:20;98643.84;;;28.81;41.35
9187;BME280;7273;48.902;9.410;2023-06-24T13:37:46;98648.94;;;28.76;41.57
9187;BME280;7273;48.902;9.410;2023-06-24T13:40:11;98635.00;;;28.72;41.21